Grand Canyon National Park Airport
KGCN : now visible

Airfield :











YOU CAN JOIN US ON...

 
LOGIN :

Register | Disclaimer

   EN    FR    IT 

 









Legend :    VFR   Marginal VFR   IFR   Intensive IFR   Very Intensive IFR
Visi :
Ceiling :
>= 8 km
>= 3000ft
5 to 8 km
1000 to 3000 ft
1500m to 5 km
500 to 1000 ft
800 to 1500m
200 to 500 ft
< 800m
< 200 ft
Symbols :   Thunderstorms  Fog  Heavy snow  Heavy precipitations  Wind > 20 kt






- Airport Elevation : 6609 ft
- IATA code : GCN


KGCN - Grand Canyon National Park

CURRENT METAR :
  • 042154Z 21012G21KT 10SM CLR 31/M03 A3026 RMK AO2 WSHFT 2042 SLP142 T03061028

EXPIRED METARs :
  • 042102Z 10SM CLR 30/M04 A3027 RMK AO2 WSHFT 2042 T03001039
  • 042054Z 22012G19KT 10SM CLR 31/M03 A3028 RMK AO2 SLP150 T03061033 56013
  • 041954Z 24007G24KT 200V290 10SM CLR 30/M04 A3029 RMK AO2 SLP147 T03001039

TAF KGCN
Valid from the 04 at 18:00 until the 05 at 18:00 UTC


041737Z 0418/0518 22013G23KT P6SM FEW100
FM050200 VRB04KT P6SM SKC
FM051600 20010KT P6SM SKC
KZLA FIR / North America



MET'MAP, your aeronautical weather chart ! - Copyright ORBIFLY December 2007 - Disclaimer

ORBIFLY MET'MAP TEAM :

Programming & Development : Alexandra Zaïnal
Concept & original design : Baudouin d'Aumeries
Assistance for programming : Marc-Olivier Méhu
Technical & hardware support : Manuel Goepfert

Contact : metmap@orbifly.com




SOURCES & CREDITS :

   NOAA       Earth
Advisory